Time;durP1;ratioP1;P1;durP2;ratioP2;P2;SDS_P1;SDS_P2;PMS_P1;PMS_P2;Temp;Humidity;BMP_temperature;BMP_pressure;BME280_temperature;BME280_humidity;BME280_pressure;Samples;Min_cycle;Max_cycle;Signal;HPM_P1;HPM_P2
2021/12/18 00:00:12;;;;;;;3.40;1.77;;;8.10;99.90;;;;;;6205258;23;20193;-67
2021/12/18 00:02:43;;;;;;;3.65;2.10;;;8.10;99.90;;;;;;6206479;23;20182;-65
2021/12/18 00:05:16;;;;;;;3.47;2.20;;;8.00;99.90;;;;;;6203982;23;20186;-65
2021/12/18 00:07:47;;;;;;;3.50;2.20;;;8.00;99.90;;;;;;6208192;23;20333;-65
2021/12/18 00:10:20;;;;;;;2.33;2.08;;;7.90;99.90;;;;;;6205075;23;20635;-64
2021/12/18 00:12:52;;;;;;;3.70;2.20;;;7.80;99.90;;;;;;6207048;23;20642;-67
2021/12/18 00:15:25;;;;;;;2.38;2.17;;;7.80;99.90;;;;;;6206677;23;20249;-65
2021/12/18 00:17:56;;;;;;;2.60;2.10;;;7.60;99.90;;;;;;6207105;23;20960;-64
2021/12/18 00:20:29;;;;;;;5.05;2.40;;;7.60;99.90;;;;;;6203938;23;20190;-64
2021/12/18 00:23:04;;;;;;;3.00;2.30;;;7.50;99.90;;;;;;6207625;23;20209;-64
2021/12/18 00:25:35;;;;;;;2.67;2.42;;;7.50;99.90;;;;;;6208067;23;20197;-64
2021/12/18 00:28:08;;;;;;;3.05;2.40;;;7.40;99.90;;;;;;6205541;23;20584;-65
2021/12/18 00:30:39;;;;;;;3.50;3.20;;;7.40;99.90;;;;;;6207688;23;20320;-64
2021/12/18 00:33:11;;;;;;;3.53;2.50;;;7.40;99.90;;;;;;6205836;23;20209;-63
2021/12/18 00:35:44;;;;;;;4.68;2.40;;;7.40;99.90;;;;;;6208360;23;20189;-67
2021/12/18 00:38:15;;;;;;;3.22;2.95;;;7.40;99.90;;;;;;6211345;23;20190;-67
2021/12/18 00:40:47;;;;;;;2.60;2.40;;;7.30;99.90;;;;;;6205149;23;20239;-65
2021/12/18 00:43:26;;;;;;;3.13;2.03;;;7.20;99.90;;;;;;6209189;23;20185;-64
2021/12/18 00:45:57;;;;;;;3.58;2.67;;;7.10;99.90;;;;;;6207344;23;20190;-64
2021/12/18 00:48:28;;;;;;;4.72;2.13;;;7.10;99.90;;;;;;6205923;23;20268;-64
2021/12/18 00:51:01;;;;;;;2.70;2.50;;;7.00;99.90;;;;;;6205247;23;20240;-66
2021/12/18 00:53:33;;;;;;;3.38;2.85;;;6.90;99.90;;;;;;6199362;23;20263;-65
2021/12/18 00:56:04;;;;;;;3.80;3.05;;;6.90;99.90;;;;;;6209181;23;20539;-65
2021/12/18 00:58:35;;;;;;;4.38;2.85;;;6.90;99.90;;;;;;6209474;23;20213;-65
2021/12/18 01:01:09;;;;;;;2.60;2.35;;;6.90;99.90;;;;;;6209906;23;20193;-67
2021/12/18 01:03:42;;;;;;;3.03;2.50;;;6.80;99.90;;;;;;6206410;23;20566;-65
2021/12/18 01:06:16;;;;;;;3.13;2.63;;;6.70;99.90;;;;;;6209611;23;20236;-65
2021/12/18 01:08:47;;;;;;;2.97;2.47;;;6.70;99.90;;;;;;6211277;23;20186;-65
2021/12/18 01:22:42;;;;;;;2.65;2.45;;;6.60;99.90;;;;;;6208588;23;20222;-65
2021/12/18 01:22:48;;;;;;;3.03;2.80;;;6.60;99.90;;;;;;6199389;23;20205;-66
2021/12/18 01:25:21;;;;;;;2.75;2.55;;;6.50;99.90;;;;;;6200220;23;20772;-65
2021/12/18 01:27:52;;;;;;;2.85;2.63;;;6.50;99.90;;;;;;6210173;23;20186;-66
2021/12/18 01:30:26;;;;;;;3.30;3.08;;;6.50;99.90;;;;;;6195028;23;20304;-64
2021/12/18 01:32:57;;;;;;;3.03;2.75;;;6.50;99.90;;;;;;6208891;23;20226;-65
2021/12/18 01:35:28;;;;;;;2.70;2.50;;;6.40;99.90;;;;;;6210013;23;20190;-64
2021/12/18 01:38:01;;;;;;;3.85;2.60;;;6.30;99.90;;;;;;6208984;23;20213;-65
2021/12/18 01:40:33;;;;;;;3.08;2.60;;;6.30;99.90;;;;;;6207955;23;20261;-62
2021/12/18 01:46:28;;;;;;;4.75;2.70;;;6.30;99.90;;;;;;6211779;23;20186;-65
2021/12/18 01:52:02;;;;;;;2.97;2.78;;;6.40;99.90;;;;;;6209704;23;20190;-64
2021/12/18 01:54:34;;;;;;;2.47;2.28;;;6.40;99.90;;;;;;6195605;23;20182;-64
2021/12/18 01:57:07;;;;;;;2.42;2.10;;;6.30;99.90;;;;;;6207453;23;20255;-64
2021/12/18 01:59:45;;;;;;;3.72;3.42;;;6.30;99.90;;;;;;6206972;23;20537;-72
2021/12/18 02:02:18;;;;;;;3.72;2.63;;;6.20;99.90;;;;;;6209081;23;20185;-67
2021/12/18 02:04:50;;;;;;;3.45;3.15;;;6.30;99.90;;;;;;6209862;23;20217;-68
2021/12/18 02:07:21;;;;;;;3.70;3.22;;;6.30;99.90;;;;;;6207514;23;20266;-69
2021/12/18 02:10:02;;;;;;;4.47;3.40;;;6.30;99.90;;;;;;6208219;23;20186;-66
2021/12/18 02:12:41;;;;;;;3.28;2.97;;;6.20;99.90;;;;;;6211603;23;20339;-66
2021/12/18 02:20:51;;;;;;;3.13;2.85;;;6.20;99.90;;;;;;6211565;23;20248;-66
2021/12/18 02:23:22;;;;;;;3.30;3.00;;;6.10;99.90;;;;;;6206203;23;20178;-69
2021/12/18 02:25:54;;;;;;;3.70;2.72;;;6.10;99.90;;;;;;6206966;23;20224;-69
2021/12/18 02:28:26;;;;;;;4.03;3.15;;;6.10;99.90;;;;;;6208430;23;20186;-65
2021/12/18 02:30:58;;;;;;;3.55;3.25;;;6.10;99.90;;;;;;6207810;23;20259;-66
2021/12/18 02:33:30;;;;;;;3.65;3.35;;;6.10;99.90;;;;;;6205422;23;20931;-64
2021/12/18 02:36:08;;;;;;;3.83;3.28;;;6.10;99.90;;;;;;6209194;23;20197;-64
2021/12/18 02:39:00;;;;;;;3.47;2.80;;;6.20;99.90;;;;;;6206156;23;20244;-64
2021/12/18 02:41:35;;;;;;;5.57;2.97;;;6.20;99.90;;;;;;6209183;23;20531;-66
2021/12/18 02:44:08;;;;;;;3.80;3.00;;;6.10;99.90;;;;;;6206697;23;20646;-65
2021/12/18 02:46:39;;;;;;;3.45;3.10;;;6.00;99.90;;;;;;6209303;23;20281;-66
2021/12/18 02:49:13;;;;;;;3.50;2.95;;;6.10;99.90;;;;;;6203687;23;20190;-68
2021/12/18 02:51:46;;;;;;;3.90;2.72;;;6.00;99.90;;;;;;6208969;23;20492;-68
2021/12/18 02:54:18;;;;;;;5.50;2.90;;;6.10;99.90;;;;;;6210224;23;20248;-63
2021/12/18 02:56:49;;;;;;;3.15;2.85;;;6.10;99.90;;;;;;6203615;23;20186;-64
2021/12/18 02:59:21;;;;;;;3.15;2.85;;;6.10;99.90;;;;;;6208718;23;20186;-64
2021/12/18 03:01:52;;;;;;;3.70;3.40;;;6.20;99.90;;;;;;6208399;23;20241;-65
2021/12/18 03:04:28;;;;;;;4.05;3.72;;;6.30;99.90;;;;;;6203097;23;20182;-66
2021/12/18 03:07:04;;;;;;;2.95;2.75;;;6.30;99.90;;;;;;6208500;23;20524;-65
2021/12/18 03:23:44;;;;;;;3.72;3.42;;;6.40;99.90;;;;;;6206733;23;20178;-68
2021/12/18 03:26:15;;;;;;;4.95;2.95;;;6.50;99.90;;;;;;6204413;23;20232;-68
2021/12/18 03:28:46;;;;;;;4.43;3.60;;;6.60;99.90;;;;;;6204415;23;20213;-68
2021/12/18 03:31:17;;;;;;;3.45;3.15;;;6.60;99.90;;;;;;6204209;23;20562;-68
2021/12/18 03:33:48;;;;;;;6.00;2.92;;;6.60;99.90;;;;;;6206613;23;20232;-67
2021/12/18 03:36:19;;;;;;;3.40;3.10;;;6.60;99.90;;;;;;6201796;23;20672;-68
2021/12/18 03:38:52;;;;;;;4.35;3.53;;;6.60;99.90;;;;;;6207632;23;20506;-68
2021/12/18 03:41:23;;;;;;;3.35;2.70;;;6.60;99.90;;;;;;6206846;23;20190;-68
2021/12/18 03:43:54;;;;;;;2.95;2.70;;;6.50;99.90;;;;;;6207920;23;20201;-68
2021/12/18 03:46:26;;;;;;;3.30;3.10;;;6.50;99.90;;;;;;6209491;23;20194;-74
2021/12/18 03:48:57;;;;;;;3.70;3.40;;;6.50;99.90;;;;;;6204638;23;20193;-68
2021/12/18 03:51:28;;;;;;;4.35;3.80;;;6.50;99.90;;;;;;6206675;23;20205;-69
2021/12/18 03:54:02;;;;;;;3.78;3.40;;;6.50;99.90;;;;;;6205507;23;20252;-69
2021/12/18 03:56:33;;;;;;;4.68;4.28;;;6.40;99.90;;;;;;6204199;23;20186;-68
2021/12/18 03:59:05;;;;;;;4.20;3.70;;;6.40;99.90;;;;;;6200569;23;20186;-69
2021/12/18 04:01:36;;;;;;;3.88;3.40;;;6.40;99.90;;;;;;6208321;23;20220;-70
2021/12/18 04:04:07;;;;;;;3.88;3.45;;;6.50;99.90;;;;;;6205918;23;20182;-70
2021/12/18 04:06:39;;;;;;;4.03;3.63;;;6.50;99.90;;;;;;6208215;23;20281;-69
2021/12/18 04:09:13;;;;;;;5.45;4.25;;;6.50;99.90;;;;;;6206788;23;20209;-68
2021/12/18 04:11:45;;;;;;;4.90;4.50;;;6.60;99.90;;;;;;6206847;23;20189;-69
2021/12/18 04:14:17;;;;;;;3.55;3.25;;;6.50;99.90;;;;;;6206229;23;20198;-69
2021/12/18 04:16:48;;;;;;;3.90;3.60;;;6.50;99.90;;;;;;6207491;23;20504;-69
2021/12/18 04:19:20;;;;;;;4.28;3.80;;;6.60;99.90;;;;;;6192957;23;20186;-69
2021/12/18 04:21:51;;;;;;;3.55;3.25;;;6.50;99.90;;;;;;6207305;23;20186;-69
2021/12/18 04:24:24;;;;;;;4.65;4.05;;;6.30;99.90;;;;;;6208591;23;20256;-70
2021/12/18 04:26:55;;;;;;;4.22;3.83;;;6.30;99.90;;;;;;6200707;23;20190;-70
2021/12/18 04:29:26;;;;;;;5.43;4.93;;;6.30;99.90;;;;;;6206078;23;20190;-71
2021/12/18 04:32:00;;;;;;;80.57;17.45;;;6.20;99.90;;;;;;6209378;23;20190;-70
2021/12/18 04:34:31;;;;;;;5.82;5.32;;;6.20;99.90;;;;;;6210642;23;20260;-71
2021/12/18 04:37:02;;;;;;;5.63;5.13;;;6.00;99.90;;;;;;6209313;23;20336;-69
2021/12/18 04:39:36;;;;;;;6.20;4.53;;;6.00;99.90;;;;;;6206878;23;20239;-71
2021/12/18 04:42:07;;;;;;;6.35;5.75;;;5.80;99.90;;;;;;6209490;23;20185;-70
2021/12/18 04:44:38;;;;;;;7.00;6.10;;;5.80;99.90;;;;;;6205450;23;20178;-70
2021/12/18 04:47:09;;;;;;;6.88;5.68;;;5.80;99.90;;;;;;6205926;23;20265;-70
2021/12/18 04:49:40;;;;;;;5.90;5.40;;;5.70;99.90;;;;;;6203767;23;20182;-70
2021/12/18 04:52:11;;;;;;;6.90;6.20;;;5.60;99.90;;;;;;6205148;23;20262;-69
2021/12/18 04:54:44;;;;;;;6.03;5.53;;;5.50;99.90;;;;;;6207263;23;20202;-70
2021/12/18 04:57:15;;;;;;;7.60;5.72;;;5.40;99.90;;;;;;6208683;23;20193;-70
2021/12/18 04:59:46;;;;;;;5.32;4.90;;;5.40;99.90;;;;;;6205835;23;20630;-70
2021/12/18 05:02:21;;;;;;;6.05;5.10;;;5.30;99.90;;;;;;6210011;23;20215;-69
2021/12/18 05:04:52;;;;;;;5.68;5.07;;;5.20;99.90;;;;;;6204158;23;20269;-70
2021/12/18 05:07:23;;;;;;;6.85;5.47;;;5.00;99.90;;;;;;6210054;23;20587;-69
2021/12/18 05:09:56;;;;;;;5.60;5.10;;;4.90;99.90;;;;;;6207586;23;20307;-69
2021/12/18 05:12:43;;;;;;;7.82;6.57;;;4.90;99.90;;;;;;6205020;23;20192;-70
2021/12/18 05:15:15;;;;;;;12.88;10.48;;;4.90;99.90;;;;;;6207329;23;20296;-70
2021/12/18 05:17:46;;;;;;;7.60;6.80;;;4.90;99.90;;;;;;6207328;23;20182;-68
2021/12/18 05:20:20;;;;;;;7.97;5.35;;;5.00;99.90;;;;;;6205585;23;20664;-70
2021/12/18 05:22:55;;;;;;;6.63;5.53;;;5.00;99.90;;;;;;6208650;23;20216;-69
2021/12/18 05:25:43;;;;;;;7.72;6.20;;;5.00;99.90;;;;;;6209744;23;20521;-70
2021/12/18 05:28:25;;;;;;;7.30;6.50;;;5.00;99.90;;;;;;6209258;23;20188;-71
2021/12/18 05:31:04;;;;;;;7.90;6.75;;;5.10;99.90;;;;;;6208940;23;20578;-70
2021/12/18 05:33:41;;;;;;;8.13;7.25;;;5.00;99.90;;;;;;6208033;23;20200;-70
2021/12/18 05:36:32;;;;;;;8.50;7.70;;;5.00;99.90;;;;;;6207351;23;20205;-70
2021/12/18 05:39:06;;;;;;;7.38;6.68;;;5.10;99.90;;;;;;6210840;23;20182;-70
2021/12/18 05:41:39;;;;;;;7.60;6.90;;;5.10;99.90;;;;;;6207091;23;20280;-68
2021/12/18 05:44:16;;;;;;;8.20;7.30;;;5.10;99.90;;;;;;6206469;23;20602;-68
2021/12/18 05:46:48;;;;;;;7.38;6.70;;;5.10;99.90;;;;;;6211571;23;20187;-69
2021/12/18 05:49:19;;;;;;;9.07;6.90;;;5.00;99.90;;;;;;6206156;23;20655;-68
2021/12/18 05:51:50;;;;;;;9.85;8.93;;;5.00;99.90;;;;;;6205482;23;20182;-68
2021/12/18 05:54:22;;;;;;;8.70;7.55;;;4.90;99.90;;;;;;6197291;23;20197;-69
2021/12/18 05:56:54;;;;;;;7.85;6.90;;;4.90;99.90;;;;;;6209043;23;20182;-69
2021/12/18 05:59:25;;;;;;;7.45;6.75;;;4.90;99.90;;;;;;6210973;23;20505;-68
2021/12/18 06:01:56;;;;;;;12.18;7.20;;;4.90;99.90;;;;;;6206560;23;20669;-68
2021/12/18 06:04:26;;;;;;;7.53;6.82;;;5.00;99.90;;;;;;6208306;23;20511;-68
2021/12/18 06:07:03;;;;;;;8.30;7.18;;;5.00;99.90;;;;;;6208859;23;20202;-69
2021/12/18 06:09:37;;;;;;;7.38;6.57;;;5.10;99.90;;;;;;6205600;23;20185;-68
2021/12/18 06:12:11;;;;;;;7.85;7.03;;;5.00;99.90;;;;;;6209485;23;20182;-68
2021/12/18 06:14:42;;;;;;;9.25;8.30;;;5.10;99.90;;;;;;6208510;23;20649;-68
2021/12/18 06:17:13;;;;;;;9.63;7.95;;;5.20;99.90;;;;;;6208760;23;20265;-68
2021/12/18 06:19:43;;;;;;;8.25;6.57;;;5.20;99.90;;;;;;6206557;23;20186;-68
2021/12/18 06:22:14;;;;;;;9.82;7.28;;;5.30;99.90;;;;;;6206901;23;20650;-68
2021/12/18 06:24:45;;;;;;;8.27;7.50;;;5.20;99.90;;;;;;6208154;23;20186;-68
2021/12/18 06:27:17;;;;;;;6.43;5.68;;;5.20;99.90;;;;;;6208927;23;20182;-68
2021/12/18 06:29:49;;;;;;;7.68;7.05;;;5.20;99.90;;;;;;6206366;23;20185;-68
2021/12/18 06:32:20;;;;;;;6.80;5.93;;;5.10;99.90;;;;;;6196590;23;20182;-68
2021/12/18 06:34:50;;;;;;;8.77;7.47;;;5.10;99.90;;;;;;6209369;23;20641;-67
2021/12/18 06:37:21;;;;;;;7.95;5.88;;;5.00;99.90;;;;;;6206860;23;20182;-67
2021/12/18 06:39:52;;;;;;;7.30;6.40;;;5.10;99.90;;;;;;6206034;23;20223;-67
2021/12/18 06:42:40;;;;;;;7.45;6.70;;;5.10;99.90;;;;;;6210817;23;20182;-68
2021/12/18 06:45:12;;;;;;;6.88;6.10;;;5.10;99.90;;;;;;6207761;23;20200;-68
2021/12/18 06:47:43;;;;;;;11.45;6.35;;;5.20;99.90;;;;;;6208539;23;20181;-68
2021/12/18 06:50:14;;;;;;;7.68;5.57;;;5.20;99.90;;;;;;6205271;23;20186;-67
2021/12/18 06:52:46;;;;;;;6.88;6.22;;;5.30;99.90;;;;;;6208581;23;20630;-68
2021/12/18 06:55:18;;;;;;;6.55;5.95;;;5.30;99.90;;;;;;6208035;23;20198;-68
2021/12/18 06:57:50;;;;;;;6.78;6.07;;;5.30;99.90;;;;;;6204684;23;20236;-68
2021/12/18 07:00:22;;;;;;;6.05;5.30;;;5.30;99.90;;;;;;6208444;23;20186;-67
2021/12/18 07:02:54;;;;;;;7.72;5.85;;;5.30;99.90;;;;;;6210494;23;20189;-68
2021/12/18 07:05:25;;;;;;;7.75;6.00;;;5.30;99.90;;;;;;6206981;23;20285;-68
2021/12/18 07:07:56;;;;;;;7.55;5.63;;;5.30;99.90;;;;;;6206345;23;20209;-68
2021/12/18 07:10:27;;;;;;;7.28;5.97;;;5.30;99.90;;;;;;6205343;23;20666;-68
2021/12/18 07:12:59;;;;;;;6.82;5.40;;;5.20;99.90;;;;;;6208080;23;20208;-67
2021/12/18 07:15:30;;;;;;;6.78;6.07;;;5.20;99.90;;;;;;6209004;23;20542;-68
2021/12/18 07:18:01;;;;;;;6.65;6.05;;;5.10;99.90;;;;;;6207824;23;20190;-67
2021/12/18 07:20:32;;;;;;;6.00;5.40;;;5.10;99.90;;;;;;6205651;23;20271;-67
2021/12/18 07:23:03;;;;;;;6.40;5.80;;;5.00;99.90;;;;;;6208132;23;20480;-68
2021/12/18 07:25:34;;;;;;;7.05;6.35;;;5.00;99.90;;;;;;6205757;23;20185;-68
2021/12/18 07:28:07;;;;;;;6.60;5.90;;;4.90;99.90;;;;;;6206858;23;20186;-68
2021/12/18 07:30:37;;;;;;;6.38;5.53;;;4.90;99.90;;;;;;6208324;23;20188;-67
2021/12/18 07:33:10;;;;;;;7.18;5.95;;;4.80;99.90;;;;;;6210472;23;20186;-68
2021/12/18 07:35:42;;;;;;;7.00;6.30;;;4.80;99.90;;;;;;6206326;23;20224;-69
2021/12/18 07:38:14;;;;;;;7.45;5.70;;;4.80;99.90;;;;;;6205604;23;20220;-69
2021/12/18 07:40:45;;;;;;;6.00;5.40;;;4.90;99.90;;;;;;6207952;23;20447;-68
2021/12/18 07:43:18;;;;;;;6.95;5.82;;;4.90;99.90;;;;;;6207964;23;20213;-69
2021/12/18 07:45:48;;;;;;;7.25;5.93;;;4.80;99.90;;;;;;6209703;23;20336;-68
2021/12/18 07:48:19;;;;;;;6.25;5.63;;;4.90;99.90;;;;;;6206632;23;20189;-68
2021/12/18 07:50:50;;;;;;;6.45;5.68;;;5.00;99.90;;;;;;6210752;23;20261;-68
2021/12/18 07:53:23;;;;;;;11.05;5.95;;;4.90;99.90;;;;;;6208217;23;20182;-68
2021/12/18 07:55:54;;;;;;;5.50;5.00;;;4.90;99.90;;;;;;6210142;23;20202;-68
2021/12/18 07:58:27;;;;;;;5.60;5.10;;;4.80;99.90;;;;;;6209962;23;20631;-68
2021/12/18 08:00:58;;;;;;;5.50;5.00;;;4.80;99.90;;;;;;6201957;23;20501;-68
2021/12/18 08:03:29;;;;;;;5.95;5.32;;;4.70;99.90;;;;;;6209296;23;20205;-65
2021/12/18 08:06:00;;;;;;;6.05;5.18;;;4.60;99.90;;;;;;6210178;23;20198;-64
2021/12/18 08:08:31;;;;;;;6.28;5.13;;;4.60;99.90;;;;;;6210112;23;20186;-65
2021/12/18 08:11:02;;;;;;;5.90;5.30;;;4.60;99.90;;;;;;6207865;23;20269;-69
2021/12/18 08:13:34;;;;;;;5.35;4.60;;;4.50;99.90;;;;;;6210275;23;20677;-67
2021/12/18 08:16:06;;;;;;;5.90;5.13;;;4.50;99.90;;;;;;6209881;23;20670;-67
2021/12/18 08:18:37;;;;;;;5.25;4.68;;;4.50;99.90;;;;;;6206747;23;20186;-67
2021/12/18 08:21:08;;;;;;;5.43;4.45;;;4.50;99.90;;;;;;6207933;23;20185;-67
2021/12/18 08:23:38;;;;;;;5.55;4.60;;;4.60;99.90;;;;;;6207457;23;20198;-66
2021/12/18 08:26:10;;;;;;;5.55;4.80;;;4.60;99.90;;;;;;6211899;23;20253;-67
2021/12/18 08:28:42;;;;;;;4.20;3.80;;;4.70;99.90;;;;;;6209778;23;20186;-67
2021/12/18 08:31:13;;;;;;;4.70;4.20;;;4.70;99.90;;;;;;6206175;23;20261;-67
2021/12/18 08:33:44;;;;;;;5.30;4.40;;;4.80;99.90;;;;;;6208818;23;20182;-67
2021/12/18 08:36:15;;;;;;;5.28;4.05;;;4.70;99.90;;;;;;6209682;23;20490;-67
2021/12/18 08:38:46;;;;;;;4.65;4.13;;;4.60;99.90;;;;;;6207735;23;20236;-68
2021/12/18 08:41:16;;;;;;;4.20;3.80;;;4.60;99.90;;;;;;6207464;23;20188;-67
2021/12/18 08:43:50;;;;;;;5.13;4.18;;;4.60;99.90;;;;;;6209640;23;20186;-67
2021/12/18 08:46:20;;;;;;;4.18;3.88;;;4.60;99.90;;;;;;6210025;23;20196;-67
2021/12/18 08:48:51;;;;;;;4.93;3.60;;;4.60;99.90;;;;;;6206513;23;20504;-67
2021/12/18 08:51:22;;;;;;;5.05;4.10;;;4.60;99.90;;;;;;6198379;23;20181;-67
2021/12/18 08:53:53;;;;;;;4.28;3.88;;;4.70;99.90;;;;;;6206816;23;20857;-67
2021/12/18 08:56:24;;;;;;;4.97;3.60;;;4.60;99.90;;;;;;6209921;23;20237;-67
2021/12/18 08:58:58;;;;;;;5.13;4.63;;;4.60;99.90;;;;;;6209263;23;20190;-66
2021/12/18 09:01:29;;;;;;;5.25;4.75;;;4.60;99.90;;;;;;6207604;23;20201;-66
2021/12/18 09:04:00;;;;;;;7.00;4.20;;;4.60;99.90;;;;;;6210314;23;20290;-67
2021/12/18 09:06:32;;;;;;;4.65;4.25;;;4.60;99.90;;;;;;6210137;23;20206;-66
2021/12/18 09:09:03;;;;;;;3.97;3.58;;;4.50;99.90;;;;;;6209416;23;20190;-66
2021/12/18 09:11:33;;;;;;;5.50;3.90;;;4.50;99.90;;;;;;6209799;23;20534;-66
2021/12/18 09:14:06;;;;;;;5.28;4.50;;;4.50;99.90;;;;;;6207296;23;20594;-66
2021/12/18 09:16:37;;;;;;;3.55;3.25;;;4.50;99.90;;;;;;6209464;23;20692;-66
2021/12/18 09:19:08;;;;;;;5.07;4.68;;;4.60;99.90;;;;;;6206059;23;20182;-66
2021/12/18 09:21:39;;;;;;;4.28;3.88;;;4.60;99.90;;;;;;6209777;23;20216;-66
2021/12/18 09:24:09;;;;;;;6.05;4.35;;;4.60;99.90;;;;;;6209059;23;20190;-66
2021/12/18 09:26:40;;;;;;;4.55;4.10;;;4.60;99.90;;;;;;6211791;23;20182;-66
2021/12/18 09:29:13;;;;;;;5.45;4.40;;;4.70;99.90;;;;;;6206940;23;20194;-66
2021/12/18 09:31:44;;;;;;;4.80;4.38;;;4.70;99.90;;;;;;6207089;23;20182;-66
2021/12/18 09:34:14;;;;;;;4.40;4.03;;;4.70;99.90;;;;;;6208100;23;20182;-66
2021/12/18 09:36:45;;;;;;;4.22;3.80;;;4.80;99.90;;;;;;6209166;23;20293;-66
2021/12/18 09:39:16;;;;;;;4.43;3.95;;;4.80;99.90;;;;;;6210487;23;20185;-66
2021/12/18 09:41:50;;;;;;;4.63;4.13;;;4.80;99.90;;;;;;6209522;23;20192;-66
2021/12/18 09:44:26;;;;;;;3.67;3.38;;;4.90;99.90;;;;;;6209136;23;20193;-66
2021/12/18 09:46:57;;;;;;;4.38;3.97;;;4.90;99.90;;;;;;6209294;23;20177;-67
2021/12/18 09:49:29;;;;;;;4.35;3.92;;;5.00;99.90;;;;;;6205650;23;20278;-67
2021/12/18 09:52:00;;;;;;;4.30;3.85;;;4.90;99.90;;;;;;6209267;23;20182;-67
2021/12/18 09:54:31;;;;;;;4.72;4.22;;;4.90;99.90;;;;;;6209079;23;20264;-67
2021/12/18 09:57:02;;;;;;;4.97;4.38;;;4.90;99.90;;;;;;6210187;23;20198;-67
2021/12/18 09:59:36;;;;;;;5.80;4.18;;;4.90;99.90;;;;;;6206698;23;20205;-67
2021/12/18 10:02:08;;;;;;;4.68;3.80;;;5.00;99.90;;;;;;6210751;23;20188;-67
2021/12/18 10:04:41;;;;;;;5.60;4.50;;;5.00;99.90;;;;;;6207917;23;20216;-67
2021/12/18 10:07:20;;;;;;;4.40;4.00;;;5.10;99.90;;;;;;6208801;23;20690;-67
2021/12/18 10:09:56;;;;;;;4.63;4.22;;;5.10;99.90;;;;;;6208440;23;20189;-67
2021/12/18 10:12:29;;;;;;;4.53;4.13;;;5.10;99.90;;;;;;6211121;23;20182;-67
2021/12/18 10:15:04;;;;;;;4.15;3.85;;;5.10;99.90;;;;;;6206380;23;20182;-67
2021/12/18 10:17:36;;;;;;;4.85;4.35;;;5.10;99.90;;;;;;6209297;23;20201;-67
2021/12/18 10:20:22;;;;;;;4.10;3.80;;;5.20;99.90;;;;;;6207397;23;20182;-68
2021/12/18 10:22:55;;;;;;;4.45;3.65;;;5.20;99.90;;;;;;6206526;23;20193;-68
2021/12/18 10:25:28;;;;;;;4.40;4.00;;;5.20;99.90;;;;;;6208605;23;20185;-67
2021/12/18 10:28:03;;;;;;;3.85;3.42;;;5.20;99.90;;;;;;6208461;23;20189;-67
2021/12/18 10:30:36;;;;;;;5.35;4.10;;;5.20;99.90;;;;;;6207090;23;20186;-67
2021/12/18 10:33:09;;;;;;;3.80;3.25;;;5.30;99.90;;;;;;6208314;23;20257;-67
2021/12/18 10:35:43;;;;;;;4.40;4.05;;;5.30;99.90;;;;;;6209101;23;20183;-68
2021/12/18 10:38:40;;;;;;;3.88;3.58;;;5.30;99.90;;;;;;6208341;23;20208;-69
2021/12/18 10:41:23;;;;;;;3.80;3.40;;;5.30;99.90;;;;;;6208440;23;20189;-68
2021/12/18 10:44:02;;;;;;;3.80;3.33;;;5.30;99.90;;;;;;6208255;23;20192;-67
2021/12/18 10:46:36;;;;;;;4.47;3.50;;;5.20;99.90;;;;;;6209294;23;20189;-68
2021/12/18 10:49:09;;;;;;;3.30;3.10;;;5.20;99.90;;;;;;6207409;23;20498;-68
2021/12/18 10:51:41;;;;;;;4.47;4.10;;;5.20;99.90;;;;;;6208725;23;20188;-66
2021/12/18 10:54:17;;;;;;;4.25;3.78;;;5.30;99.90;;;;;;6207974;23;20185;-67
2021/12/18 10:56:51;;;;;;;5.40;4.13;;;5.20;99.90;;;;;;6209629;23;20209;-67
2021/12/18 10:59:24;;;;;;;4.25;3.85;;;5.20;99.90;;;;;;6208368;23;20258;-67
2021/12/18 11:01:58;;;;;;;4.40;4.00;;;5.20;99.90;;;;;;6208623;23;20188;-66
2021/12/18 11:04:30;;;;;;;5.28;4.20;;;5.20;99.90;;;;;;6209335;23;20190;-66
2021/12/18 11:07:16;;;;;;;7.75;4.00;;;5.20;99.90;;;;;;6206560;23;20205;-66
2021/12/18 11:10:00;;;;;;;5.15;4.38;;;5.20;99.90;;;;;;6206096;23;20182;-67
2021/12/18 11:15:19;;;;;;;8.65;7.20;;;5.20;99.90;;;;;;6208345;23;20203;-66
2021/12/18 11:17:52;;;;;;;9.30;6.88;;;5.20;99.90;;;;;;6208227;23;20208;-67
2021/12/18 11:20:24;;;;;;;10.40;5.90;;;5.20;99.90;;;;;;6208922;23;20204;-67
2021/12/18 11:22:55;;;;;;;9.07;7.43;;;5.20;99.90;;;;;;6207884;23;20181;-67
2021/12/18 11:25:27;;;;;;;7.47;6.30;;;5.20;99.90;;;;;;6208363;23;20186;-67
2021/12/18 11:27:58;;;;;;;7.50;6.50;;;5.20;99.90;;;;;;6208425;23;20474;-67
2021/12/18 11:30:29;;;;;;;9.32;7.45;;;5.20;99.90;;;;;;6208282;23;20182;-66
2021/12/18 11:33:02;;;;;;;8.30;6.70;;;5.20;99.90;;;;;;6208058;23;20201;-67
2021/12/18 11:35:35;;;;;;;7.35;5.85;;;5.20;99.90;;;;;;6207784;23;20190;-66
2021/12/18 11:38:08;;;;;;;7.18;5.75;;;5.20;99.90;;;;;;6206005;23;20289;-67
2021/12/18 11:40:41;;;;;;;6.70;5.95;;;5.20;99.90;;;;;;6208244;23;20654;-67
2021/12/18 11:43:32;;;;;;;4.60;4.20;;;5.20;99.90;;;;;;6205365;23;20198;-67
2021/12/18 11:46:03;;;;;;;5.10;4.65;;;5.30;99.90;;;;;;6204813;23;20674;-67
2021/12/18 11:48:57;;;;;;;5.72;3.83;;;5.30;99.90;;;;;;6204879;23;20524;-67
2021/12/18 11:51:28;;;;;;;3.45;3.17;;;5.30;99.90;;;;;;6208456;23;20200;-67
2021/12/18 11:54:02;;;;;;;3.38;3.10;;;5.30;99.90;;;;;;6206028;23;20243;-67
2021/12/18 11:56:48;;;;;;;4.30;3.50;;;5.30;99.90;;;;;;6208960;23;20197;-67
2021/12/18 11:59:39;;;;;;;3.85;3.55;;;5.30;99.90;;;;;;6207920;23;20208;-67
2021/12/18 12:02:11;;;;;;;3.33;3.03;;;5.30;99.90;;;;;;6205676;23;20193;-68
2021/12/18 12:05:04;;;;;;;3.40;3.00;;;5.30;99.90;;;;;;6209109;23;20213;-67
2021/12/18 12:07:37;;;;;;;2.92;2.72;;;5.40;99.90;;;;;;6178668;23;20187;-67
2021/12/18 12:10:21;;;;;;;2.67;2.47;;;5.40;99.90;;;;;;6177356;23;20194;-68
2021/12/18 12:12:54;;;;;;;4.20;3.00;;;5.40;99.90;;;;;;6178022;23;20679;-67
2021/12/18 12:15:27;;;;;;;3.70;3.03;;;5.40;99.90;;;;;;6179490;23;20198;-66
2021/12/18 12:18:00;;;;;;;3.05;2.80;;;5.40;99.90;;;;;;6178265;23;20237;-66
2021/12/18 12:20:39;;;;;;;3.88;2.88;;;5.40;99.90;;;;;;6175397;23;20198;-66
2021/12/18 12:23:11;;;;;;;3.05;2.80;;;5.40;99.90;;;;;;6177883;23;20509;-67
2021/12/18 12:25:49;;;;;;;3.40;3.10;;;5.30;99.90;;;;;;6177778;23;20195;-66
2021/12/18 12:28:23;;;;;;;2.83;2.63;;;5.30;99.90;;;;;;6179850;23;20256;-66
2021/12/18 12:31:05;;;;;;;3.25;2.85;;;5.30;99.90;;;;;;6176648;23;20195;-66
2021/12/18 12:33:37;;;;;;;3.05;2.65;;;5.30;99.90;;;;;;6180785;23;20182;-68
2021/12/18 12:36:13;;;;;;;2.78;2.58;;;5.30;99.90;;;;;;6180086;23;20280;-67
2021/12/18 12:38:55;;;;;;;3.20;2.90;;;5.30;99.90;;;;;;6179978;23;20508;-67
2021/12/18 12:41:40;;;;;;;3.03;2.65;;;5.30;99.90;;;;;;6178172;23;20194;-67
2021/12/18 12:44:36;;;;;;;2.38;2.17;;;5.30;99.90;;;;;;6177190;23;20468;-67
2021/12/18 12:47:18;;;;;;;2.90;2.38;;;5.30;99.90;;;;;;6179461;23;20183;-67
2021/12/18 12:49:51;;;;;;;3.35;2.50;;;5.40;99.90;;;;;;6174089;23;20261;-67
2021/12/18 12:52:25;;;;;;;3.00;2.80;;;5.40;99.90;;;;;;6180303;23;20202;-67
2021/12/18 12:55:14;;;;;;;3.00;2.72;;;5.40;99.90;;;;;;6171842;23;20192;-67
2021/12/18 12:57:47;;;;;;;5.20;2.97;;;5.40;99.90;;;;;;6180107;23;20282;-67
2021/12/18 13:00:34;;;;;;;4.32;3.92;;;5.40;99.90;;;;;;6176746;23;20186;-67
2021/12/18 13:03:26;;;;;;;4.40;4.10;;;5.50;99.90;;;;;;6161329;23;20191;-67
2021/12/18 13:06:08;;;;;;;4.60;4.30;;;5.50;99.90;;;;;;6164303;23;20206;-67
2021/12/18 13:08:42;;;;;;;3.92;3.63;;;5.50;99.90;;;;;;6180427;23;20185;-67
2021/12/18 13:11:22;;;;;;;4.35;3.97;;;5.50;99.90;;;;;;6179248;23;20206;-67
2021/12/18 13:13:54;;;;;;;5.47;4.90;;;5.50;99.90;;;;;;6174921;23;20190;-67
2021/12/18 13:16:26;;;;;;;5.25;4.75;;;5.60;99.90;;;;;;6181873;23;20839;-67
2021/12/18 13:18:58;;;;;;;3.80;3.40;;;5.60;99.90;;;;;;6177691;23;20225;-67
2021/12/18 13:21:32;;;;;;;3.40;3.08;;;5.60;99.90;;;;;;6179536;23;20198;-67
2021/12/18 13:24:07;;;;;;;3.17;2.88;;;5.70;99.90;;;;;;6176852;23;20229;-67
2021/12/18 13:26:39;;;;;;;2.97;2.78;;;5.70;99.90;;;;;;6179625;23;20213;-67
2021/12/18 13:29:11;;;;;;;3.42;2.92;;;5.70;99.90;;;;;;6181193;23;20526;-68
2021/12/18 13:31:47;;;;;;;3.45;3.00;;;5.70;99.90;;;;;;6177639;23;20492;-67
2021/12/18 13:34:19;;;;;;;2.95;2.67;;;5.70;99.90;;;;;;6177563;23;20205;-68
2021/12/18 13:36:53;;;;;;;2.83;2.63;;;5.80;99.90;;;;;;6179615;23;20246;-67
2021/12/18 13:39:27;;;;;;;2.75;2.55;;;5.80;99.90;;;;;;6179393;23;20627;-66
2021/12/18 13:42:09;;;;;;;3.33;2.70;;;5.80;99.90;;;;;;6176497;23;20183;-67
2021/12/18 13:44:49;;;;;;;3.22;2.97;;;5.80;99.90;;;;;;6178992;23;20186;-67
2021/12/18 13:47:23;;;;;;;3.00;2.80;;;5.80;99.90;;;;;;6179470;23;20216;-67
2021/12/18 13:50:03;;;;;;;3.85;3.50;;;5.90;99.90;;;;;;6175563;23;20182;-67
2021/12/18 13:52:45;;;;;;;2.70;2.50;;;5.90;99.90;;;;;;6179377;23;20194;-68
2021/12/18 13:55:31;;;;;;;3.65;2.53;;;5.80;99.90;;;;;;6180885;23;20231;-68
2021/12/18 13:58:09;;;;;;;2.72;2.50;;;5.80;99.90;;;;;;6178991;23;20650;-68
2021/12/18 14:00:56;;;;;;;4.53;3.00;;;5.90;99.90;;;;;;6177142;23;20615;-68
2021/12/18 14:03:29;;;;;;;2.45;2.25;;;5.90;99.90;;;;;;6177579;23;20669;-68
2021/12/18 14:06:03;;;;;;;2.38;2.17;;;6.00;99.90;;;;;;6180203;23;20233;-68
2021/12/18 14:08:37;;;;;;;2.28;2.08;;;6.00;99.90;;;;;;6177094;23;20194;-68